Edgar, Montana
Current Conditions -  °F | °C
As of 12:53 PM on Thursday 18 Dec 2014 (Local Time) from KBIL Reporting Station
Scattered Clouds Scattered Clouds  
Wind Chill: 26°   Ceiling: Unl
Heat Index: 36°   Visibility: 10mi
Dew Point: 22°   Wind: 17mph
Humidity: 57%   Direction: 240°WSW
Pressure: 29.95"   Gusts: 26mph
Location:  45.46°N, 108.85°W
Report Text: KBIL 181953Z 24015G23KT 10SM FEW100 SCT250 02/M06 A2995 RMK AO2 SLP173 ACSL ALQDS T00221056
Loading
Personal Weather Stations






























Interactive Weather Map New forecast layout! Learn more

10-Day Weather Forecast

Advertisements
Track Severe Weather on mobile